Time;durP1;ratioP1;P1;durP2;ratioP2;P2;SDS_P1;SDS_P2;PMS_P1;PMS_P2;Temp;Humidity;BMP_temperature;BMP_pressure;BME280_temperature;BME280_humidity;BME280_pressure;Samples;Min_cycle;Max_cycle;Signal;HPM_P1;HPM_P2
2022/07/10 00:00:10;;;;;;;8.07;6.23;;;12.50;99.90;;;;;;8303979;28;20194;-67
2022/07/10 00:04:11;;;;;;;8.10;5.67;;;12.50;99.90;;;;;;8315982;28;20220;-64
2022/07/10 00:08:12;;;;;;;6.43;5.13;;;12.60;99.90;;;;;;8300237;28;20198;-66
2022/07/10 00:12:13;;;;;;;7.30;5.63;;;12.60;99.90;;;;;;8305377;28;20312;-67
2022/07/10 00:16:14;;;;;;;7.40;5.60;;;12.60;99.90;;;;;;8306213;28;20205;-67
2022/07/10 00:20:15;;;;;;;6.10;5.03;;;12.60;99.90;;;;;;8302456;28;20269;-64
2022/07/10 00:24:16;;;;;;;6.47;5.77;;;12.50;99.90;;;;;;8298359;28;20210;-66
2022/07/10 00:28:17;;;;;;;9.60;6.27;;;12.50;99.90;;;;;;8303145;28;20190;-63
2022/07/10 00:32:17;;;;;;;8.00;6.20;;;12.50;99.90;;;;;;8302919;28;20213;-69
2022/07/10 00:36:18;;;;;;;9.67;5.60;;;12.50;99.90;;;;;;8301159;28;20192;-66
2022/07/10 00:40:19;;;;;;;7.07;5.90;;;12.60;99.90;;;;;;8306261;28;20191;-66
2022/07/10 00:44:20;;;;;;;11.87;6.30;;;12.60;99.90;;;;;;8300017;28;20190;-65
2022/07/10 00:48:21;;;;;;;8.63;5.97;;;12.60;99.90;;;;;;8303018;28;20198;-66
2022/07/10 00:52:22;;;;;;;6.77;5.23;;;12.70;99.90;;;;;;8302717;28;20217;-68
2022/07/10 00:56:26;;;;;;;6.80;4.63;;;12.70;99.90;;;;;;8302713;28;20184;-69
2022/07/10 01:00:27;;;;;;;8.70;5.23;;;12.80;99.90;;;;;;8303233;28;20201;-68
2022/07/10 01:04:29;;;;;;;7.30;4.77;;;12.70;99.90;;;;;;8300039;28;20198;-64
2022/07/10 01:08:30;;;;;;;6.60;5.00;;;12.70;99.90;;;;;;8305894;28;20328;-64
2022/07/10 01:12:31;;;;;;;5.27;4.43;;;12.60;99.90;;;;;;8308867;28;20209;-64
2022/07/10 01:16:32;;;;;;;6.93;4.63;;;12.60;99.90;;;;;;8305351;28;20282;-64
2022/07/10 01:20:33;;;;;;;6.50;4.53;;;12.60;99.90;;;;;;8304208;28;20194;-65
2022/07/10 01:24:34;;;;;;;7.93;4.87;;;12.60;99.90;;;;;;8308948;28;20226;-64
2022/07/10 01:28:35;;;;;;;5.20;4.53;;;12.60;99.90;;;;;;8314305;28;20197;-65
2022/07/10 01:32:45;;;;;;;6.33;4.03;;;12.50;99.90;;;;;;8314372;28;20225;-65
2022/07/10 01:36:46;;;;;;;4.93;4.33;;;12.50;99.90;;;;;;8315193;28;20273;-65
2022/07/10 01:40:47;;;;;;;5.17;4.20;;;12.40;99.90;;;;;;8308681;28;20200;-68
2022/07/10 01:44:48;;;;;;;5.63;3.90;;;12.40;99.90;;;;;;8313890;28;20555;-67
2022/07/10 01:48:48;;;;;;;8.53;3.87;;;12.40;99.90;;;;;;8305755;28;20200;-66
2022/07/10 01:52:49;;;;;;;5.57;4.03;;;12.40;99.90;;;;;;8306834;28;20224;-65
2022/07/10 01:56:50;;;;;;;10.00;4.73;;;12.50;99.90;;;;;;8305971;28;20192;-64
2022/07/10 02:00:51;;;;;;;7.63;4.33;;;12.50;99.90;;;;;;8310696;28;20193;-65
2022/07/10 02:04:51;;;;;;;7.17;4.40;;;12.50;99.90;;;;;;8314769;28;20284;-65
2022/07/10 02:08:52;;;;;;;6.83;3.93;;;12.60;99.90;;;;;;8308651;28;20198;-66
2022/07/10 02:12:53;;;;;;;7.57;4.27;;;12.60;99.90;;;;;;8306133;28;20214;-65
2022/07/10 02:16:55;;;;;;;7.47;4.33;;;12.50;99.90;;;;;;8323650;28;20189;-68
2022/07/10 02:20:56;;;;;;;6.80;3.20;;;12.50;99.90;;;;;;8305870;28;20469;-67
2022/07/10 02:24:57;;;;;;;5.47;3.00;;;12.50;99.90;;;;;;8305978;28;20193;-66
2022/07/10 02:28:57;;;;;;;4.47;2.33;;;12.50;99.90;;;;;;8306031;28;20228;-66
2022/07/10 02:32:58;;;;;;;6.97;2.60;;;12.40;99.90;;;;;;8302513;28;20223;-66
2022/07/10 02:36:59;;;;;;;5.13;2.13;;;12.40;99.90;;;;;;8305192;28;20184;-67
2022/07/10 02:40:59;;;;;;;4.63;2.47;;;12.30;99.90;;;;;;8310200;28;20192;-67
2022/07/10 02:45:00;;;;;;;9.80;2.40;;;12.20;99.90;;;;;;8310533;28;20246;-68
2022/07/10 02:49:01;;;;;;;3.50;2.23;;;12.20;99.90;;;;;;8303636;28;20263;-66
2022/07/10 02:53:03;;;;;;;6.17;2.37;;;12.20;99.90;;;;;;8308170;28;20238;-68
2022/07/10 02:57:04;;;;;;;3.60;2.23;;;12.20;99.90;;;;;;8316682;28;20245;-66
2022/07/10 03:01:05;;;;;;;4.93;2.50;;;12.20;99.90;;;;;;8311543;28;20191;-65
2022/07/10 03:05:06;;;;;;;5.37;2.40;;;12.20;99.90;;;;;;8307335;28;20202;-67
2022/07/10 03:09:07;;;;;;;2.90;2.30;;;12.10;99.90;;;;;;8307749;28;20280;-66
2022/07/10 03:13:08;;;;;;;4.50;2.33;;;12.10;99.90;;;;;;8310390;28;20228;-69
2022/07/10 03:17:09;;;;;;;4.87;1.90;;;12.10;99.90;;;;;;8310944;28;20204;-65
2022/07/10 03:21:10;;;;;;;6.40;2.20;;;12.00;99.90;;;;;;8306815;28;20290;-68
2022/07/10 03:25:11;;;;;;;4.67;1.97;;;12.00;99.90;;;;;;8307444;28;20191;-68
2022/07/10 03:29:11;;;;;;;5.07;1.73;;;12.00;99.90;;;;;;8301562;28;20215;-68
2022/07/10 03:33:12;;;;;;;5.50;2.33;;;12.00;99.90;;;;;;8303594;28;20232;-66
2022/07/10 03:37:13;;;;;;;4.50;1.60;;;12.00;99.90;;;;;;8304938;28;20670;-66
2022/07/10 03:41:14;;;;;;;5.87;1.60;;;12.00;99.90;;;;;;8307018;28;20191;-66
2022/07/10 03:45:15;;;;;;;3.77;1.60;;;12.00;99.90;;;;;;8308928;28;20601;-67
2022/07/10 03:49:16;;;;;;;8.63;1.37;;;12.00;99.90;;;;;;8299234;28;20191;-68
2022/07/10 03:53:17;;;;;;;1.80;1.23;;;12.00;99.90;;;;;;8307245;28;20249;-67
2022/07/10 04:01:37;;;;;;;2.83;0.90;;;12.10;99.90;;;;;;8303421;28;20297;-67
2022/07/10 04:05:38;;;;;;;4.13;1.20;;;12.10;99.90;;;;;;8299173;28;20478;-66
2022/07/10 04:09:39;;;;;;;5.00;1.23;;;12.10;99.90;;;;;;8300705;28;20209;-67
2022/07/10 04:13:40;;;;;;;3.33;1.30;;;12.20;99.90;;;;;;8312005;28;20224;-65
2022/07/10 04:17:40;;;;;;;3.73;1.20;;;12.20;99.90;;;;;;8303748;28;20220;-67
2022/07/10 04:21:41;;;;;;;3.43;1.43;;;12.20;99.90;;;;;;8303949;28;20248;-67
2022/07/10 04:25:42;;;;;;;3.57;1.10;;;12.20;99.90;;;;;;8300662;28;20498;-65
2022/07/10 04:29:43;;;;;;;2.43;1.10;;;12.30;99.90;;;;;;8297841;28;20232;-64
2022/07/10 04:33:44;;;;;;;4.27;1.00;;;12.30;99.90;;;;;;8301215;28;20213;-66
2022/07/10 04:37:46;;;;;;;6.73;1.60;;;12.50;99.90;;;;;;8301252;28;20242;-65
2022/07/10 04:41:47;;;;;;;2.60;1.10;;;12.50;99.90;;;;;;8305034;28;20196;-66
2022/07/10 04:45:47;;;;;;;3.37;1.20;;;12.40;99.90;;;;;;8305455;28;20191;-74
2022/07/10 04:49:48;;;;;;;3.63;1.17;;;12.50;99.90;;;;;;8301696;28;20260;-69
2022/07/10 04:53:49;;;;;;;1.87;0.80;;;12.50;99.90;;;;;;8304405;28;20269;-67
2022/07/10 04:57:50;;;;;;;6.90;1.43;;;12.60;99.90;;;;;;8302681;28;20186;-66
2022/07/10 05:01:51;;;;;;;4.17;1.17;;;12.70;99.90;;;;;;8304871;28;20190;-67
2022/07/10 05:05:51;;;;;;;9.70;1.40;;;12.70;99.90;;;;;;8299621;28;20198;-66
2022/07/10 05:09:52;;;;;;;6.83;1.10;;;12.70;99.90;;;;;;8300388;28;20198;-66
2022/07/10 05:13:53;;;;;;;5.53;1.47;;;12.70;99.90;;;;;;8304083;28;20221;-66
2022/07/10 05:17:54;;;;;;;3.20;1.13;;;12.60;99.90;;;;;;8302072;28;20248;-64
2022/07/10 05:21:55;;;;;;;5.03;1.20;;;12.70;99.90;;;;;;8305075;28;20202;-66
2022/07/10 05:25:55;;;;;;;2.97;1.03;;;12.70;99.90;;;;;;8302134;28;20201;-66
2022/07/10 05:29:56;;;;;;;4.20;1.10;;;12.90;99.90;;;;;;8302940;28;20191;-68
2022/07/10 05:33:57;;;;;;;3.67;0.90;;;12.90;99.90;;;;;;8304383;28;20600;-64
2022/07/10 05:37:58;;;;;;;5.97;1.00;;;12.90;99.90;;;;;;8298791;28;20605;-66
2022/07/10 05:41:59;;;;;;;7.13;1.13;;;12.90;99.90;;;;;;8303069;28;20202;-67
2022/07/10 05:46:00;;;;;;;1.70;0.80;;;13.00;99.90;;;;;;8301700;28;20186;-72
2022/07/10 05:50:00;;;;;;;3.07;1.10;;;13.10;99.90;;;;;;8295903;28;20199;-68
2022/07/10 05:54:01;;;;;;;4.27;1.03;;;13.20;99.90;;;;;;8295920;28;20608;-71
2022/07/10 05:58:02;;;;;;;5.87;1.00;;;13.30;99.90;;;;;;8301231;28;20195;-72
2022/07/10 06:02:03;;;;;;;4.13;1.20;;;13.30;99.90;;;;;;8300767;28;20201;-70
2022/07/10 06:06:04;;;;;;;3.23;0.83;;;13.40;99.90;;;;;;8300936;28;20212;-69
2022/07/10 06:10:06;;;;;;;3.83;1.20;;;13.40;99.90;;;;;;8301815;28;20191;-71
2022/07/10 06:14:06;;;;;;;3.73;0.80;;;13.40;99.90;;;;;;8307148;28;20221;-70
2022/07/10 06:18:07;;;;;;;3.67;0.90;;;13.40;99.90;;;;;;8305409;28;20269;-70
2022/07/10 06:26:27;;;;;;;3.53;0.90;;;13.70;99.90;;;;;;8307293;28;20198;-71
2022/07/10 06:30:28;;;;;;;3.33;0.80;;;13.80;99.90;;;;;;8300366;28;20214;-70
2022/07/10 06:34:29;;;;;;;3.33;0.63;;;14.00;1.00;;;;;;8301266;28;20179;-69
2022/07/10 06:38:30;;;;;;;3.00;0.67;;;13.90;99.90;;;;;;8306646;28;20261;-71
2022/07/10 06:42:31;;;;;;;5.83;1.43;;;14.00;1.00;;;;;;8302614;28;20187;-71
2022/07/10 06:46:32;;;;;;;3.03;0.93;;;14.00;1.00;;;;;;8299044;28;20198;-71
2022/07/10 06:50:34;;;;;;;3.40;0.77;;;14.00;99.90;;;;;;8305591;28;20209;-69
2022/07/10 06:54:35;;;;;;;5.83;1.00;;;14.00;1.00;;;;;;8300482;28;20202;-71
2022/07/10 06:58:36;;;;;;;4.40;0.93;;;13.90;99.90;;;;;;8303981;28;20189;-71
2022/07/10 07:02:37;;;;;;;4.23;1.40;;;14.00;99.90;;;;;;8301076;28;20313;-71
2022/07/10 07:06:38;;;;;;;3.63;1.00;;;14.20;76.90;;;;;;8296597;28;20248;-69
2022/07/10 07:10:38;;;;;;;6.73;1.10;;;14.20;99.90;;;;;;8301489;28;20264;-71
2022/07/10 07:14:39;;;;;;;2.23;0.83;;;14.50;99.90;;;;;;8302407;28;20194;-69
2022/07/10 07:18:49;;;;;;;3.90;0.70;;;14.80;1.00;;;;;;8308018;28;20198;-73
2022/07/10 07:27:12;;;;;;;6.17;1.20;;;15.10;1.00;;;;;;8303870;28;20206;-69
2022/07/10 07:31:13;;;;;;;2.83;0.90;;;15.00;99.90;;;;;;8301131;28;20333;-70
2022/07/10 07:35:15;;;;;;;3.97;1.00;;;15.00;99.90;;;;;;8303652;28;20187;-71
2022/07/10 07:39:16;;;;;;;2.03;0.97;;;14.90;99.90;;;;;;8305489;28;20187;-71
2022/07/10 07:43:17;;;;;;;3.40;1.00;;;14.80;1.00;;;;;;8312996;28;20253;-70
2022/07/10 07:47:18;;;;;;;2.27;0.83;;;14.50;99.90;;;;;;8311827;28;20195;-70
2022/07/10 07:51:18;;;;;;;3.43;1.10;;;14.40;1.00;;;;;;8302108;28;20282;-70
2022/07/10 07:55:21;;;;;;;4.10;1.50;;;14.40;99.90;;;;;;8306495;28;20252;-72
2022/07/10 07:59:21;;;;;;;5.80;1.23;;;14.50;99.90;;;;;;8301445;28;20191;-72
2022/07/10 08:03:23;;;;;;;1.53;0.70;;;14.70;1.00;;;;;;8299915;28;20193;-71
2022/07/10 08:07:32;;;;;;;3.10;0.90;;;14.70;99.90;;;;;;8295778;28;20206;-71
2022/07/10 08:11:33;;;;;;;4.53;1.63;;;14.60;99.90;;;;;;8308914;28;20238;-71
2022/07/10 08:15:36;;;;;;;2.40;0.60;;;14.70;99.90;;;;;;8298079;28;20171;-69
2022/07/10 08:19:37;;;;;;;2.30;1.00;;;14.70;19.50;;;;;;8311797;28;20447;-72
2022/07/10 08:23:38;;;;;;;2.80;0.90;;;14.50;99.90;;;;;;8304220;28;20459;-70
2022/07/10 08:27:39;;;;;;;3.80;0.70;;;14.70;99.90;;;;;;8299821;28;20220;-71
2022/07/10 08:31:40;;;;;;;4.17;1.10;;;14.80;99.90;;;;;;8298036;28;21577;-70
2022/07/10 08:35:44;;;;;;;4.20;1.00;;;15.00;99.90;;;;;;8300635;28;20273;-70
2022/07/10 08:39:45;;;;;;;4.03;0.97;;;15.50;39.60;;;;;;8300898;28;20187;-71
2022/07/10 08:43:45;;;;;;;4.53;0.70;;;15.80;1.00;;;;;;8307890;28;20198;-70
2022/07/10 08:47:46;;;;;;;2.90;1.00;;;15.70;1.00;;;;;;8302191;28;20204;-71
2022/07/10 08:52:03;;;;;;;6.50;1.10;;;15.50;1.00;;;;;;8299330;28;20218;-69
2022/07/10 08:56:05;;;;;;;4.57;1.17;;;14.90;99.90;;;;;;8303589;28;20194;-69
2022/07/10 09:00:06;;;;;;;5.10;1.40;;;13.40;1.00;;;;;;8305144;28;20190;-71
2022/07/10 09:04:14;;;;;;;3.63;1.57;;;13.10;99.90;;;;;;8312696;28;20198;-70
2022/07/10 09:08:31;;;;;;;5.60;1.40;;;13.30;99.90;;;;;;8299496;28;20284;-71
2022/07/10 09:12:59;;;;;;;2.50;1.27;;;13.80;99.90;;;;;;8314772;28;20214;-68
2022/07/10 09:17:02;;;;;;;4.00;1.40;;;14.40;99.90;;;;;;8317092;28;20310;-68
2022/07/10 09:21:11;;;;;;;4.27;1.10;;;14.50;1.00;;;;;;8307730;28;20198;-67
2022/07/10 09:25:15;;;;;;;1.83;1.13;;;14.30;1.00;;;;;;8332781;28;20289;-68
2022/07/10 09:29:16;;;;;;;3.77;1.40;;;14.10;1.00;;;;;;8312767;28;20573;-68
2022/07/10 09:33:26;;;;;;;3.00;1.10;;;13.70;99.90;;;;;;8296643;28;20229;-68
2022/07/10 09:37:29;;;;;;;3.93;1.30;;;13.30;99.90;;;;;;8333998;28;20194;-69
2022/07/10 09:41:31;;;;;;;2.77;1.37;;;13.10;99.90;;;;;;8311714;28;20194;-67
2022/07/10 09:45:33;;;;;;;6.27;1.90;;;13.10;99.90;;;;;;8301118;28;20273;-68
2022/07/10 09:49:33;;;;;;;4.80;1.60;;;13.30;99.90;;;;;;8301703;28;20198;-71
2022/07/10 09:53:42;;;;;;;4.60;1.60;;;13.60;1.00;;;;;;8304373;28;20241;-67
2022/07/10 09:57:46;;;;;;;4.77;1.40;;;13.80;99.90;;;;;;8313838;28;20239;-68
2022/07/10 10:01:49;;;;;;;3.53;1.30;;;14.30;1.00;;;;;;8331061;28;20187;-70
2022/07/10 10:05:55;;;;;;;2.97;1.37;;;15.10;99.90;;;;;;8342098;28;20285;-72
2022/07/10 10:09:58;;;;;;;4.27;1.27;;;15.40;99.90;;;;;;8310692;28;20237;-70
2022/07/10 10:14:02;;;;;;;5.20;1.10;;;15.40;1.00;;;;;;8325282;28;20214;-69
2022/07/10 10:18:03;;;;;;;3.50;1.27;;;15.00;1.00;;;;;;8308058;28;20179;-71
2022/07/10 10:22:05;;;;;;;3.57;0.97;;;15.30;1.00;;;;;;8319475;28;20274;-70
2022/07/10 10:26:06;;;;;;;3.27;1.00;;;15.30;1.00;;;;;;8308159;28;20198;-68
2022/07/10 10:30:07;;;;;;;4.57;1.07;;;15.10;1.00;;;;;;8307383;28;20182;-67
2022/07/10 10:34:08;;;;;;;2.33;1.03;;;14.80;99.90;;;;;;8304339;28;20221;-71
2022/07/10 10:38:09;;;;;;;3.27;1.40;;;14.50;99.90;;;;;;8318704;28;20186;-70
2022/07/10 10:42:37;;;;;;;3.67;1.10;;;14.50;1.00;;;;;;8302892;28;20191;-68
2022/07/10 10:46:50;;;;;;;4.07;1.33;;;14.90;1.00;;;;;;8297743;28;20195;-70
2022/07/10 10:50:54;;;;;;;4.83;1.50;;;15.10;99.90;;;;;;8309088;28;20214;-71
2022/07/10 10:54:59;;;;;;;7.57;1.30;;;15.10;34.30;;;;;;8304711;28;20248;-70
2022/07/10 10:59:00;;;;;;;4.93;1.30;;;15.20;1.00;;;;;;8304791;28;20210;-67
2022/07/10 11:03:17;;;;;;;3.60;1.20;;;15.20;94.80;;;;;;8304382;28;20186;-68
2022/07/10 11:07:55;;;;;;;3.13;1.00;;;15.50;99.90;;;;;;8307394;28;20204;-70
2022/07/10 11:12:09;;;;;;;5.70;1.30;;;16.10;99.90;;;;;;8303605;28;20232;-69
2022/07/10 11:16:13;;;;;;;3.67;0.90;;;16.40;1.00;;;;;;8302602;28;20190;-71
2022/07/10 11:20:13;;;;;;;3.13;1.00;;;15.70;1.00;;;;;;8309202;28;20186;-70
2022/07/10 11:24:40;;;;;;;4.30;1.03;;;15.40;1.00;;;;;;8307301;28;20260;-71
2022/07/10 11:28:49;;;;;;;3.60;1.13;;;15.20;99.90;;;;;;8308190;28;20182;-71
2022/07/10 11:32:51;;;;;;;1.70;0.93;;;15.10;99.90;;;;;;8310847;28;20227;-70
2022/07/10 11:36:52;;;;;;;2.97;0.80;;;15.10;99.90;;;;;;8308278;28;20207;-68
2022/07/10 11:40:56;;;;;;;4.83;1.47;;;15.30;1.00;;;;;;8309267;28;20182;-70
2022/07/10 11:44:57;;;;;;;4.13;1.00;;;15.60;1.00;;;;;;8301952;28;20187;-71
2022/07/10 11:48:58;;;;;;;3.93;1.10;;;16.10;1.00;;;;;;8306267;28;20197;-71
2022/07/10 11:52:59;;;;;;;4.90;1.10;;;16.50;1.00;;;;;;8309530;28;20221;-69
2022/07/10 11:57:06;;;;;;;1.37;0.80;;;16.70;99.90;;;;;;8304598;28;20189;-71
2022/07/10 12:01:11;;;;;;;3.80;0.93;;;16.10;99.90;;;;;;8299967;28;21766;-69
2022/07/10 12:05:32;;;;;;;4.87;0.80;;;15.70;99.90;;;;;;8298442;28;20241;-72
2022/07/10 12:09:36;;;;;;;4.07;0.73;;;15.70;99.90;;;;;;8324155;28;20191;-70
2022/07/10 12:13:37;;;;;;;1.83;0.80;;;15.90;1.00;;;;;;8307581;28;20250;-70
2022/07/10 12:17:50;;;;;;;3.37;0.70;;;15.90;99.90;;;;;;8305405;28;20183;-71
2022/07/10 12:21:52;;;;;;;1.27;0.70;;;16.10;99.90;;;;;;8305528;28;20183;-69
2022/07/10 12:25:52;;;;;;;4.00;0.80;;;16.40;99.90;;;;;;8302549;28;20197;-69
2022/07/10 12:30:01;;;;;;;4.20;1.23;;;16.70;99.90;;;;;;8320677;28;20191;-70
2022/07/10 12:34:04;;;;;;;6.47;1.10;;;17.30;99.90;;;;;;8306114;28;20234;-72
2022/07/10 12:38:14;;;;;;;4.13;1.10;;;17.80;99.90;;;;;;8302174;28;20185;-71
2022/07/10 12:42:31;;;;;;;5.70;1.17;;;18.00;99.90;;;;;;8301489;28;20306;-70
2022/07/10 12:46:32;;;;;;;2.70;0.83;;;17.80;99.90;;;;;;8319402;28;20194;-70
2022/07/10 12:50:33;;;;;;;4.20;1.10;;;17.30;99.90;;;;;;8306164;28;20221;-70
2022/07/10 12:54:36;;;;;;;3.23;0.80;;;16.60;99.90;;;;;;8307677;28;20193;-70
2022/07/10 12:58:43;;;;;;;3.57;0.87;;;16.30;99.90;;;;;;8317474;28;20198;-69
2022/07/10 13:02:44;;;;;;;6.13;1.20;;;16.40;99.90;;;;;;8312946;28;20230;-68
2022/07/10 13:06:44;;;;;;;3.53;1.10;;;16.60;99.90;;;;;;8303287;28;20207;-70
2022/07/10 13:10:49;;;;;;;3.10;1.00;;;17.00;99.90;;;;;;8303479;28;20210;-70
2022/07/10 13:14:50;;;;;;;3.13;0.90;;;17.50;99.90;;;;;;8306965;28;20187;-69
2022/07/10 13:18:51;;;;;;;3.20;0.60;;;17.90;91.00;;;;;;8308184;28;20193;-70
2022/07/10 13:22:52;;;;;;;4.17;1.00;;;17.80;73.30;;;;;;8311786;28;20190;-72
2022/07/10 13:26:56;;;;;;;1.60;0.77;;;17.70;99.90;;;;;;8311552;28;20259;-69
2022/07/10 13:30:57;;;;;;;3.10;0.80;;;17.50;99.90;;;;;;8303707;28;20268;-69
2022/07/10 13:34:58;;;;;;;3.90;0.80;;;17.50;99.90;;;;;;8304021;28;20194;-73
2022/07/10 13:38:59;;;;;;;4.27;0.83;;;17.30;91.80;;;;;;8314414;28;20326;-69
2022/07/10 13:43:00;;;;;;;2.30;0.90;;;17.20;99.90;;;;;;8314596;28;20194;-72
2022/07/10 13:47:01;;;;;;;6.13;1.00;;;17.50;72.80;;;;;;8306693;28;20199;-70
2022/07/10 13:51:02;;;;;;;7.20;1.47;;;17.60;99.90;;;;;;8309617;28;20612;-70
2022/07/10 13:55:05;;;;;;;6.80;1.13;;;17.60;65.90;;;;;;8305264;28;20191;-72
2022/07/10 13:59:06;;;;;;;6.10;1.00;;;17.90;44.30;;;;;;8312989;28;20188;-68
2022/07/10 14:03:07;;;;;;;5.43;1.07;;;17.70;21.90;;;;;;8303820;28;20198;-71
2022/07/10 14:07:08;;;;;;;4.03;0.70;;;17.60;79.20;;;;;;8313431;28;20233;-69
2022/07/10 14:11:09;;;;;;;3.73;0.90;;;17.70;94.90;;;;;;8312836;28;20217;-73
2022/07/10 14:15:10;;;;;;;5.53;1.10;;;17.90;94.00;;;;;;8306348;28;20187;-69
2022/07/10 14:19:11;;;;;;;4.17;1.07;;;17.90;99.90;;;;;;8338181;28;20187;-71
2022/07/10 14:23:12;;;;;;;6.30;1.40;;;18.00;99.90;;;;;;8305838;28;20189;-71
2022/07/10 14:27:13;;;;;;;2.90;0.70;;;18.20;93.80;;;;;;8310572;28;20245;-70
2022/07/10 14:31:14;;;;;;;5.90;1.00;;;18.50;99.90;;;;;;8299547;28;20226;-69
2022/07/10 14:35:15;;;;;;;4.30;0.80;;;18.80;17.20;;;;;;8304027;28;20225;-68
2022/07/10 14:39:16;;;;;;;3.07;0.80;;;18.70;1.00;;;;;;8308052;28;20471;-69
2022/07/10 14:43:17;;;;;;;3.60;0.90;;;19.00;1.00;;;;;;8308137;28;20187;-70
2022/07/10 14:47:18;;;;;;;2.67;0.70;;;19.20;1.00;;;;;;8307145;28;20201;-69
2022/07/10 14:51:19;;;;;;;4.80;0.80;;;19.40;1.00;;;;;;8304811;28;20218;-71
2022/07/10 14:55:20;;;;;;;7.83;0.80;;;19.30;1.00;;;;;;8302793;28;20184;-71
2022/07/10 14:59:20;;;;;;;4.03;0.90;;;19.30;1.00;;;;;;8313072;28;20193;-69
2022/07/10 15:03:21;;;;;;;4.00;1.10;;;18.90;1.00;;;;;;8305166;28;20195;-69
2022/07/10 15:07:22;;;;;;;3.43;0.80;;;18.50;11.90;;;;;;8299785;28;20211;-70
2022/07/10 15:11:25;;;;;;;5.53;0.90;;;18.00;1.00;;;;;;8302236;28;20302;-68
2022/07/10 15:15:26;;;;;;;1.23;0.47;;;17.80;1.00;;;;;;8309183;28;20269;-68
2022/07/10 15:19:27;;;;;;;4.87;0.87;;;17.90;1.00;;;;;;8307326;28;20198;-69
2022/07/10 15:23:28;;;;;;;6.43;1.43;;;18.20;1.00;;;;;;8309440;28;20240;-70
2022/07/10 15:27:29;;;;;;;5.30;0.93;;;18.50;1.00;;;;;;8301881;28;20210;-68
2022/07/10 15:31:30;;;;;;;5.93;0.90;;;18.70;1.00;;;;;;8305248;28;20214;-72
2022/07/10 15:35:31;;;;;;;5.40;1.00;;;18.60;1.00;;;;;;8340636;28;20194;-71
2022/07/10 15:39:41;;;;;;;2.07;0.60;;;18.90;1.00;;;;;;8296229;28;20227;-68
2022/07/10 15:43:42;;;;;;;4.27;0.80;;;19.00;1.00;;;;;;8301705;28;20199;-68
2022/07/10 15:47:43;;;;;;;2.17;0.60;;;19.00;1.00;;;;;;8303144;28;20186;-65
2022/07/10 15:51:44;;;;;;;4.70;0.77;;;18.70;1.00;;;;;;8307132;28;20221;-71
2022/07/10 15:55:44;;;;;;;3.97;0.90;;;18.70;1.00;;;;;;8303122;28;20182;-64
2022/07/10 15:59:45;;;;;;;4.97;0.93;;;18.80;1.00;;;;;;8307567;28;20183;-69
2022/07/10 16:03:48;;;;;;;7.30;0.80;;;18.60;1.00;;;;;;8295870;28;20191;-66
2022/07/10 16:07:48;;;;;;;3.77;0.70;;;18.30;1.00;;;;;;8303866;28;20206;-69
2022/07/10 16:11:49;;;;;;;4.57;0.80;;;18.20;1.00;;;;;;8301513;28;20211;-70
2022/07/10 16:15:50;;;;;;;2.03;0.77;;;18.20;1.00;;;;;;8301352;28;20225;-67
2022/07/10 16:19:51;;;;;;;3.07;1.00;;;18.20;1.00;;;;;;8302359;28;20198;-66
2022/07/10 16:23:52;;;;;;;3.60;1.00;;;18.10;1.00;;;;;;8297006;28;20269;-65
2022/07/10 16:27:53;;;;;;;3.83;0.93;;;18.20;1.00;;;;;;8302281;28;20309;-69
2022/07/10 16:31:54;;;;;;;2.07;0.70;;;18.40;1.00;;;;;;8306058;28;21451;-70
2022/07/10 16:35:55;;;;;;;3.40;0.80;;;18.30;1.00;;;;;;8312112;28;20186;-67
2022/07/10 16:39:56;;;;;;;3.00;1.10;;;18.00;1.00;;;;;;8308819;28;20252;-69
2022/07/10 16:43:57;;;;;;;4.67;0.90;;;17.90;1.00;;;;;;8307610;28;20202;-69
2022/07/10 16:47:58;;;;;;;3.73;1.03;;;17.90;1.00;;;;;;8303000;28;20190;-70
2022/07/10 16:52:01;;;;;;;2.77;0.67;;;18.00;1.00;;;;;;8305211;28;20214;-71
2022/07/10 16:56:01;;;;;;;3.60;0.70;;;18.00;1.00;;;;;;8301073;28;20177;-69
2022/07/10 17:00:06;;;;;;;4.43;0.80;;;17.90;1.00;;;;;;8309682;28;20187;-65
2022/07/10 17:04:07;;;;;;;5.37;1.10;;;17.80;1.00;;;;;;8308104;28;20193;-70
2022/07/10 17:08:09;;;;;;;1.93;0.63;;;17.80;1.00;;;;;;8303306;28;20209;-69
2022/07/10 17:12:10;;;;;;;5.37;1.23;;;17.60;1.00;;;;;;8308168;28;20664;-68
2022/07/10 17:16:11;;;;;;;4.63;0.93;;;17.50;1.00;;;;;;8305353;28;20231;-64
2022/07/10 17:20:12;;;;;;;3.27;0.87;;;17.40;1.00;;;;;;8333706;28;20186;-65
2022/07/10 17:24:12;;;;;;;4.87;1.03;;;17.30;1.00;;;;;;8304112;28;20182;-71
2022/07/10 17:28:13;;;;;;;4.97;0.90;;;17.30;5.10;;;;;;8305939;28;20191;-65
2022/07/10 17:32:15;;;;;;;3.37;1.00;;;17.40;1.00;;;;;;8308248;28;20211;-67
2022/07/10 17:36:15;;;;;;;3.33;0.90;;;17.40;5.50;;;;;;8313271;28;20197;-65
2022/07/10 17:40:16;;;;;;;4.27;0.80;;;17.40;1.00;;;;;;8302605;28;20182;-63
2022/07/10 17:44:21;;;;;;;4.60;0.90;;;17.50;3.80;;;;;;8309067;28;20203;-70
2022/07/10 17:48:23;;;;;;;4.47;1.10;;;17.50;4.00;;;;;;8303057;28;20202;-67
2022/07/10 17:52:24;;;;;;;3.90;0.83;;;17.50;1.00;;;;;;8302025;28;20219;-68
2022/07/10 17:56:25;;;;;;;3.93;0.93;;;17.50;1.00;;;;;;8302273;28;20193;-63
2022/07/10 18:00:26;;;;;;;3.77;1.10;;;17.50;1.00;;;;;;8298720;28;20282;-67
2022/07/10 18:04:26;;;;;;;4.30;1.17;;;17.40;9.70;;;;;;8301404;28;20257;-68
2022/07/10 18:08:27;;;;;;;4.60;1.03;;;17.30;8.70;;;;;;8308285;28;20198;-66
2022/07/10 18:12:28;;;;;;;3.40;0.87;;;17.30;21.90;;;;;;8308537;28;20218;-63
2022/07/10 18:16:29;;;;;;;2.23;0.80;;;17.30;27.80;;;;;;8322818;28;20269;-63
2022/07/10 18:20:35;;;;;;;3.93;0.97;;;17.20;56.60;;;;;;8310941;28;20191;-69
2022/07/10 18:24:36;;;;;;;5.37;1.80;;;17.10;35.70;;;;;;8309478;28;20197;-66
2022/07/10 18:28:39;;;;;;;3.60;0.67;;;17.20;16.60;;;;;;8315740;28;20190;-64
2022/07/10 18:37:03;;;;;;;3.50;0.70;;;18.20;1.00;;;;;;8310425;28;20200;-69
2022/07/10 18:41:05;;;;;;;2.40;1.00;;;18.50;1.00;;;;;;8313533;28;20186;-68
2022/07/10 18:45:06;;;;;;;4.20;0.93;;;18.60;1.00;;;;;;8316600;28;20195;-72
2022/07/10 18:49:09;;;;;;;3.77;1.00;;;18.70;1.00;;;;;;8345836;28;20190;-70
2022/07/10 18:53:10;;;;;;;4.20;0.93;;;18.70;1.00;;;;;;8307992;28;20210;-65
2022/07/10 18:57:13;;;;;;;4.40;1.00;;;18.30;1.00;;;;;;8307936;28;20258;-63
2022/07/10 19:01:14;;;;;;;4.03;1.30;;;17.70;1.00;;;;;;8307234;28;20183;-67
2022/07/10 19:05:15;;;;;;;3.57;0.90;;;17.10;1.00;;;;;;8313468;28;20194;-63
2022/07/10 19:09:15;;;;;;;2.67;1.00;;;16.70;15.20;;;;;;8312611;28;20257;-65
2022/07/10 19:13:16;;;;;;;6.97;1.20;;;16.40;27.20;;;;;;8314690;28;20217;-64
2022/07/10 19:17:19;;;;;;;4.23;1.07;;;16.20;47.90;;;;;;8310541;28;20268;-64
2022/07/10 19:21:20;;;;;;;4.33;1.40;;;16.00;80.10;;;;;;8337706;28;20198;-71
2022/07/10 19:25:21;;;;;;;3.50;0.90;;;15.80;98.70;;;;;;8303475;28;20190;-66
2022/07/10 19:29:22;;;;;;;5.30;1.17;;;15.50;99.90;;;;;;8301800;28;20182;-66
2022/07/10 19:33:23;;;;;;;3.70;0.83;;;15.30;99.90;;;;;;8299981;28;20213;-65
2022/07/10 19:37:24;;;;;;;2.70;0.87;;;15.00;99.90;;;;;;8297334;28;20190;-66
2022/07/10 19:41:25;;;;;;;1.90;1.03;;;14.70;99.90;;;;;;8300000;28;20202;-66
2022/07/10 19:45:26;;;;;;;5.70;2.50;;;14.40;99.90;;;;;;8304644;28;20190;-67
2022/07/10 19:49:29;;;;;;;6.67;4.23;;;14.10;99.90;;;;;;8304937;28;20191;-66
2022/07/10 19:53:30;;;;;;;7.03;4.57;;;13.80;99.90;;;;;;8305516;28;20225;-64
2022/07/10 19:57:31;;;;;;;6.87;4.03;;;13.60;99.90;;;;;;8295690;28;20202;-65
2022/07/10 20:01:32;;;;;;;4.53;3.80;;;13.30;1.00;;;;;;8302073;28;20194;-65
2022/07/10 20:05:34;;;;;;;5.77;2.10;;;13.10;1.00;;;;;;8299258;28;20213;-66
2022/07/10 20:09:35;;;;;;;3.63;1.40;;;12.80;1.00;;;;;;8303583;28;20187;-65
2022/07/10 20:13:36;;;;;;;2.97;0.80;;;12.60;96.70;;;;;;8304212;28;20207;-65
2022/07/10 20:17:38;;;;;;;2.83;1.00;;;12.50;99.90;;;;;;8303229;28;20574;-65
2022/07/10 20:21:41;;;;;;;5.20;1.27;;;12.30;99.90;;;;;;8309975;28;20217;-71
2022/07/10 20:25:43;;;;;;;2.77;1.07;;;12.30;99.90;;;;;;8302033;28;20198;-65
2022/07/10 20:29:44;;;;;;;4.03;1.23;;;12.30;99.90;;;;;;8303277;28;20195;-66
2022/07/10 20:33:45;;;;;;;1.83;1.00;;;12.30;99.90;;;;;;8308170;28;20240;-67
2022/07/10 20:37:46;;;;;;;3.67;1.30;;;12.30;99.90;;;;;;8304620;28;20202;-65
2022/07/10 20:41:47;;;;;;;4.40;1.23;;;12.30;99.90;;;;;;8304047;28;20219;-65
2022/07/10 20:45:48;;;;;;;5.10;1.20;;;12.30;99.90;;;;;;8301916;28;20190;-65
2022/07/10 20:49:49;;;;;;;4.47;1.00;;;12.30;98.60;;;;;;8303249;28;20293;-65
2022/07/10 20:53:50;;;;;;;3.77;1.10;;;12.30;99.90;;;;;;8305757;28;20224;-65
2022/07/10 20:57:50;;;;;;;3.37;0.90;;;12.30;99.90;;;;;;8307214;28;20231;-66
2022/07/10 21:01:51;;;;;;;3.77;1.17;;;12.20;88.90;;;;;;8303003;28;20190;-65
2022/07/10 21:05:55;;;;;;;3.27;0.80;;;12.20;85.70;;;;;;8298647;28;20224;-66
2022/07/10 21:09:56;;;;;;;2.97;1.07;;;12.10;99.90;;;;;;8304512;28;20188;-65
2022/07/10 21:13:57;;;;;;;5.00;0.87;;;11.90;99.90;;;;;;8305125;28;20440;-66
2022/07/10 21:17:58;;;;;;;4.57;1.10;;;11.80;99.90;;;;;;8304887;28;20200;-65
2022/07/10 21:21:59;;;;;;;3.73;1.23;;;11.70;99.90;;;;;;8305256;28;20205;-66